createdAt,value
2022-12-26T00:00:27.675Z,1020.0
2022-12-26T00:15:24.481Z,1020.0
2022-12-26T00:30:23.719Z,1020.0
2022-12-26T00:45:23.702Z,1020.0
2022-12-26T01:00:23.943Z,1020.0
2022-12-26T01:15:23.800Z,1020.0
2022-12-26T01:30:23.847Z,1020.0
2022-12-26T01:45:24.260Z,1020.0
2022-12-26T02:00:29.263Z,1020.0
2022-12-26T02:15:23.841Z,1020.0
2022-12-26T02:30:23.939Z,1020.0
2022-12-26T02:45:23.936Z,1020.0
2022-12-26T03:00:26.299Z,1020.0
2022-12-26T03:15:23.868Z,1020.0
2022-12-26T03:30:33.538Z,1020.0
2022-12-26T03:45:32.967Z,1020.0
2022-12-26T04:00:35.338Z,1020.0
2022-12-26T04:15:23.376Z,1020.0
2022-12-26T04:30:23.199Z,1020.0
2022-12-26T04:45:23.209Z,1020.0
2022-12-26T05:00:34.014Z,1020.0
2022-12-26T05:15:23.347Z,1020.0
2022-12-26T05:30:23.338Z,1020.0
2022-12-26T05:45:23.268Z,1020.0
2022-12-26T06:00:26.074Z,1020.0
2022-12-26T06:15:23.155Z,1020.0
2022-12-26T06:30:23.662Z,1020.0
2022-12-26T06:45:23.422Z,1020.0
2022-12-26T07:00:30.404Z,1020.0
2022-12-26T07:15:23.461Z,1020.0
2022-12-26T07:30:23.401Z,1020.0
2022-12-26T07:45:23.668Z,1020.0
2022-12-26T08:00:28.352Z,1020.0
2022-12-26T08:15:24.094Z,1020.0
2022-12-26T08:30:23.641Z,1020.0
2022-12-26T08:45:23.379Z,1020.0
2022-12-26T09:00:28.158Z,1021.0
2022-12-26T09:15:24.044Z,1021.0
2022-12-26T09:30:26.433Z,1021.0
2022-12-26T09:45:23.679Z,1021.0
2022-12-26T10:00:29.186Z,1021.0
2022-12-26T10:15:23.700Z,1021.0
2022-12-26T10:30:23.584Z,1021.3
2022-12-26T10:45:23.880Z,1022.0
2022-12-26T11:00:48.006Z,1022.0
2022-12-26T11:15:25.271Z,1022.0
2022-12-26T11:30:24.649Z,1022.0
2022-12-26T11:45:23.665Z,1022.0
2022-12-26T12:00:23.806Z,1022.0
2022-12-26T12:15:23.780Z,1022.0
2022-12-26T12:30:24.412Z,1022.0
2022-12-26T12:45:23.968Z,1021.7
2022-12-26T13:00:29.252Z,1021.0
2022-12-26T13:15:24.093Z,1021.0
2022-12-26T13:30:33.054Z,1021.0
2022-12-26T13:45:33.195Z,1021.0
2022-12-26T14:00:33.446Z,1021.3
2022-12-26T14:15:23.184Z,1021.0
2022-12-26T14:30:23.264Z,1021.0
2022-12-26T14:45:23.085Z,1021.0
2022-12-26T15:00:24.197Z,1021.0
2022-12-26T15:15:23.285Z,1021.0
2022-12-26T15:30:24.443Z,1021.0
2022-12-26T15:45:28.106Z,1021.0
2022-12-26T16:00:27.806Z,1021.0
2022-12-26T16:15:23.398Z,1021.0
2022-12-26T16:30:23.403Z,1021.0
2022-12-26T16:45:23.329Z,1021.0
2022-12-26T17:00:27.117Z,1021.0
2022-12-26T17:15:23.617Z,1021.0
2022-12-26T17:30:25.229Z,1021.0
2022-12-26T17:45:23.580Z,1021.3
2022-12-26T18:00:31.696Z,1022.0
2022-12-26T18:15:24.223Z,1022.0
2022-12-26T18:30:25.668Z,1022.0
2022-12-26T18:45:23.536Z,1023.0
2022-12-26T19:00:31.295Z,1023.0
2022-12-26T19:15:23.548Z,1023.5
2022-12-26T19:30:35.109Z,1024.0
2022-12-26T19:45:23.957Z,1024.0
2022-12-26T20:00:23.585Z,1024.0
2022-12-26T20:15:23.553Z,1024.0
2022-12-26T20:30:23.911Z,1025.0
2022-12-26T20:45:23.441Z,1025.0
2022-12-26T21:00:40.040Z,1025.0
2022-12-26T21:15:23.718Z,1025.7
2022-12-26T21:30:23.950Z,1026.0
2022-12-26T21:45:23.883Z,1026.0
2022-12-26T22:00:24.206Z,1026.0
2022-12-26T22:15:24.404Z,1026.0
2022-12-26T22:30:24.045Z,1027.0
2022-12-26T22:45:24.177Z,1027.0
2022-12-26T23:03:08.695Z,1027.0
2022-12-26T23:15:33.005Z,1027.0
2022-12-26T23:30:32.891Z,1027.3
2022-12-26T23:45:32.878Z,1028.0
